This is the latest recevied weather packets stored in our database for station/object EA1RCG-11. If no packets are shown the sender has not sent any weather packets the latest 10 day(s).
| Time | Temp. | Humidity | Pressure | Rain* | Wind** | Luminosity | Snow |
|---|---|---|---|---|---|---|---|
| 1777473248 | 21.11° C | 58% | 971 hPa | - | - | - | - |
| 1777471448 | 20° C | 59% | 971.2 hPa | - | - | - | - |
| 1777469647 | 22.22° C | 56% | 971 hPa | - | - | - | - |
| 1777467847 | 20.56° C | 57% | 971.4 hPa | - | - | - | - |
| 1777466047 | 20° C | 57% | 971.6 hPa | - | - | - | - |
| 1777464247 | 18.33° C | 60% | 971.9 hPa | - | - | - | - |
| 1777462447 | 17.22° C | 61% | 971.9 hPa | - | - | - | - |
| 1777460647 | 17.78° C | 61% | 971.9 hPa | - | - | - | - |
| 1777458847 | 17.78° C | 61% | 971.9 hPa | - | - | - | - |
| 1777457047 | 17.22° C | 62% | 971.9 hPa | - | - | - | - |
| 1777455247 | 16.67° C | 62% | 972 hPa | - | - | - | - |
| 1777453447 | 16.67° C | 62% | 972.2 hPa | - | - | - | - |
| 1777451646 | 16.67° C | 62% | 972.2 hPa | - | - | - | - |
| 1777449845 | 16.67° C | 63% | 972.4 hPa | - | - | - | - |
| 1777448045 | 16.11° C | 63% | 972.5 hPa | - | - | - | - |
| 1777446245 | 16.11° C | 63% | 972.3 hPa | - | - | - | - |
| 1777444445 | 16.11° C | 63% | 972.1 hPa | - | - | - | - |
| 1777442645 | 16.11° C | 63% | 972.2 hPa | - | - | - | - |
| 1777440845 | 15.56° C | 64% | 972.2 hPa | - | - | - | - |
| 1777439045 | 15° C | 64% | 972.5 hPa | - | - | - | - |
| 1777437245 | 15° C | 65% | 972.8 hPa | - | - | - | - |
| 1777435445 | 15.56° C | 65% | 973 hPa | - | - | - | - |
| 1777433644 | 15.56° C | 64% | 973.2 hPa | - | - | - | - |
| 1777431844 | 15.56° C | 65% | 973.3 hPa | - | - | - | - |
| 1777430044 | 15.56° C | 65% | 973.6 hPa | - | - | - | - |
* Rain since midnight (hover to see other rain measurements)
** Current wind speed in m/s (hover to see current wind gust speed)